Time;durP1;ratioP1;P1;durP2;ratioP2;P2;SDS_P1;SDS_P2;PMS_P1;PMS_P2;Temp;Humidity;BMP_temperature;BMP_pressure;BME280_temperature;BME280_humidity;BME280_pressure;Samples;Min_cycle;Max_cycle;Signal;HPM_P1;HPM_P2
2021/12/07 00:01:17;;;;;;;3.42;1.70;;;;;;;;;;7383291;19;20006;-74
2021/12/07 00:03:43;;;;;;;3.25;2.15;;;;;;;;;;7385834;19;19998;-74
2021/12/07 00:06:09;;;;;;;2.83;1.63;;;;;;;;;;7390612;19;20072;-75
2021/12/07 00:08:40;;;;;;;2.95;2.05;;;;;;;;;;7388556;19;20497;-74
2021/12/07 00:11:06;;;;;;;3.85;2.03;;;;;;;;;;7386290;19;20022;-74
2021/12/07 00:13:36;;;;;;;4.30;2.55;;;;;;;;;;7384734;19;20062;-74
2021/12/07 00:16:02;;;;;;;4.15;1.95;;;;;;;;;;7386164;19;20014;-74
2021/12/07 00:18:27;;;;;;;3.35;1.92;;;;;;;;;;7383794;19;20018;-75
2021/12/07 00:20:52;;;;;;;4.35;2.13;;;;;;;;;;7386860;19;20014;-75
2021/12/07 00:23:18;;;;;;;3.63;1.80;;;;;;;;;;7384926;19;20002;-74
2021/12/07 00:25:44;;;;;;;4.13;1.90;;;;;;;;;;7386869;19;20010;-75
2021/12/07 00:28:09;;;;;;;3.85;1.90;;;;;;;;;;7383387;19;20019;-74
2021/12/07 00:30:36;;;;;;;3.80;2.10;;;;;;;;;;7385876;19;20045;-75
2021/12/07 00:33:15;;;;;;;3.88;1.88;;;;;;;;;;7385035;19;20399;-74
2021/12/07 00:35:40;;;;;;;4.22;1.92;;;;;;;;;;7385193;19;20017;-74
2021/12/07 00:38:16;;;;;;;4.35;2.15;;;;;;;;;;7383832;19;19998;-74
2021/12/07 00:40:41;;;;;;;;;;;;;;;;;;7385244;19;20021;-72
2021/12/07 00:43:07;;;;;;;2.33;1.48;;;;;;;;;;7384392;19;20161;-74
2021/12/07 00:45:34;;;;;;;3.28;1.77;;;;;;;;;;7385624;19;20007;-74
2021/12/07 00:48:00;;;;;;;4.00;2.10;;;;;;;;;;7382333;19;20124;-74
2021/12/07 00:50:27;;;;;;;4.00;2.33;;;;;;;;;;7378925;19;20010;-74
2021/12/07 00:52:53;;;;;;;2.63;1.60;;;;;;;;;;7385276;19;20050;-74
2021/12/07 00:55:24;;;;;;;5.63;2.15;;;;;;;;;;7384206;19;20516;-74
2021/12/07 00:57:53;;;;;;;4.78;2.10;;;;;;;;;;7384931;19;20616;-74
2021/12/07 01:00:19;;;;;;;4.20;2.13;;;;;;;;;;7383844;19;20015;-74
2021/12/07 01:02:44;;;;;;;3.60;1.88;;;;;;;;;;7385902;19;20436;-74
2021/12/07 01:05:19;;;;;;;4.05;2.10;;;;;;;;;;7383262;19;20006;-74
2021/12/07 01:26:38;;;;;;;3.13;1.50;;;;;;;;;;7384310;19;20014;-75
2021/12/07 01:29:04;;;;;;;3.95;1.73;;;;;;;;;;7382474;19;20002;-74
2021/12/07 01:31:37;;;;;;;5.50;2.42;;;;;;;;;;7380396;19;20047;-74
2021/12/07 01:37:02;;;;;;;4.90;2.10;;;;;;;;;;7380999;19;20010;-74
2021/12/07 01:39:50;;;;;;;3.10;1.83;;;;;;;;;;7374434;19;20106;-74
2021/12/07 01:45:48;;;;;;;4.50;1.92;;;;;;;;;;7379800;19;20031;-74
2021/12/07 01:49:38;;;;;;;2.95;1.73;;;;;;;;;;7381798;19;20047;-75
2021/12/07 01:57:47;;;;;;;2.80;1.70;;;;;;;;;;7379007;19;20010;-75
2021/12/07 02:01:29;;;;;;;2.28;1.70;;;;;;;;;;7379843;19;20468;-74
2021/12/07 02:03:54;;;;;;;3.22;1.85;;;;;;;;;;7382208;19;20011;-74
2021/12/07 02:06:19;;;;;;;4.82;2.00;;;;;;;;;;7383181;19;20028;-75
2021/12/07 02:08:45;;;;;;;2.65;1.83;;;;;;;;;;7381567;19;20380;-72
2021/12/07 02:11:10;;;;;;;3.95;1.75;;;;;;;;;;7377492;19;20022;-73
2021/12/07 02:16:01;;;;;;;2.53;1.80;;;;;;;;;;7382105;19;20011;-73
2021/12/07 02:18:26;;;;;;;3.35;2.30;;;;;;;;;;7387681;19;20495;-73
2021/12/07 02:20:52;;;;;;;5.60;1.83;;;;;;;;;;7385250;19;20002;-74
2021/12/07 02:23:17;;;;;;;2.63;1.77;;;;;;;;;;7387357;19;20074;-72
2021/12/07 02:25:43;;;;;;;3.60;2.20;;;;;;;;;;7387875;19;19998;-75
2021/12/07 02:28:13;;;;;;;3.45;1.98;;;;;;;;;;7389635;19;20006;-73
2021/12/07 02:30:41;;;;;;;3.08;1.83;;;;;;;;;;7385138;19;20445;-73
2021/12/07 02:33:06;;;;;;;2.88;1.83;;;;;;;;;;7389562;19;20011;-75
2021/12/07 02:35:31;;;;;;;3.55;1.88;;;;;;;;;;7389646;19;20050;-73
2021/12/07 02:37:58;;;;;;;2.72;1.70;;;;;;;;;;7388905;19;20372;-73
2021/12/07 02:40:24;;;;;;;2.90;1.65;;;;;;;;;;7388406;19;20010;-75
2021/12/07 02:42:50;;;;;;;3.47;1.70;;;;;;;;;;7391605;19;20006;-73
2021/12/07 02:45:17;;;;;;;2.83;1.70;;;;;;;;;;7389594;19;20016;-72
2021/12/07 02:47:44;;;;;;;2.22;1.60;;;;;;;;;;7390874;19;20024;-73
2021/12/07 02:50:12;;;;;;;2.72;1.58;;;;;;;;;;7387610;19;20010;-73
2021/12/07 02:52:37;;;;;;;3.10;1.65;;;;;;;;;;7388487;19;20084;-73
2021/12/07 02:55:04;;;;;;;2.25;1.45;;;;;;;;;;7389151;19;20003;-73
2021/12/07 02:57:30;;;;;;;2.85;1.77;;;;;;;;;;7389624;19;20014;-75
2021/12/07 03:00:06;;;;;;;2.67;1.98;;;;;;;;;;7388084;19;20017;-73
2021/12/07 03:02:36;;;;;;;2.50;1.80;;;;;;;;;;7389351;19;20015;-73
2021/12/07 03:05:12;;;;;;;2.58;1.50;;;;;;;;;;7388601;19;20010;-73
2021/12/07 03:25:54;;;;;;;2.47;1.70;;;;;;;;;;7384921;19;20007;-73
2021/12/07 03:26:47;;;;;;;3.38;1.40;;;;;;;;;;7388305;19;20013;-72
2021/12/07 03:29:12;;;;;;;1.90;1.30;;;;;;;;;;7386209;19;20007;-73
2021/12/07 03:31:37;;;;;;;2.67;1.45;;;;;;;;;;7385140;19;19998;-73
2021/12/07 03:34:03;;;;;;;3.08;1.80;;;;;;;;;;7388273;19;20002;-73
2021/12/07 03:36:29;;;;;;;1.70;1.50;;;;;;;;;;7388320;19;20007;-73
2021/12/07 03:38:55;;;;;;;2.92;1.75;;;;;;;;;;7385349;19;20018;-73
2021/12/07 03:41:21;;;;;;;1.73;1.35;;;;;;;;;;7387658;19;19995;-73
2021/12/07 03:43:48;;;;;;;3.55;1.60;;;;;;;;;;7388713;19;20011;-73
2021/12/07 03:46:14;;;;;;;2.75;1.23;;;;;;;;;;7388580;19;20006;-75
2021/12/07 03:48:41;;;;;;;1.90;1.38;;;;;;;;;;7387862;19;20055;-74
2021/12/07 03:51:07;;;;;;;3.17;1.45;;;;;;;;;;7387060;19;20410;-73
2021/12/07 03:53:33;;;;;;;3.85;1.83;;;;;;;;;;7389830;19;20073;-73
2021/12/07 03:55:59;;;;;;;1.67;1.38;;;;;;;;;;7389812;19;20022;-72
2021/12/07 03:58:25;;;;;;;2.13;1.50;;;;;;;;;;7385616;19;20519;-73
2021/12/07 04:00:52;;;;;;;2.70;1.40;;;;;;;;;;7384961;19;20018;-73
2021/12/07 04:03:19;;;;;;;2.13;1.30;;;;;;;;;;7386485;19;20133;-73
2021/12/07 04:05:49;;;;;;;2.80;1.73;;;;;;;;;;7386717;19;20010;-74
2021/12/07 04:08:21;;;;;;;1.60;1.23;;;;;;;;;;7383542;19;20433;-73
2021/12/07 04:10:47;;;;;;;1.85;1.20;;;;;;;;;;7385925;19;20430;-73
2021/12/07 04:13:13;;;;;;;1.38;1.02;;;;;;;;;;7387845;19;20006;-75
2021/12/07 04:15:39;;;;;;;2.22;1.33;;;;;;;;;;7386435;19;20006;-73
2021/12/07 04:18:05;;;;;;;1.90;1.30;;;;;;;;;;7383685;19;20099;-72
2021/12/07 04:20:31;;;;;;;2.05;1.40;;;;;;;;;;7382390;19;20003;-73
2021/12/07 04:22:57;;;;;;;2.17;1.40;;;;;;;;;;7384474;19;20010;-74
2021/12/07 04:25:23;;;;;;;1.70;1.50;;;;;;;;;;7384551;19;20006;-73
2021/12/07 04:27:51;;;;;;;1.50;1.30;;;;;;;;;;7380980;19;20006;-72
2021/12/07 04:30:22;;;;;;;2.60;1.30;;;;;;;;;;7383559;19;20316;-74
2021/12/07 04:32:48;;;;;;;3.75;1.67;;;;;;;;;;7381150;19;20010;-73
2021/12/07 04:35:15;;;;;;;2.67;1.38;;;;;;;;;;7385965;19;20135;-74
2021/12/07 04:37:40;;;;;;;2.28;1.42;;;;;;;;;;7384329;19;20070;-74
2021/12/07 04:40:09;;;;;;;1.70;1.50;;;;;;;;;;7383275;19;20075;-73
2021/12/07 04:42:35;;;;;;;3.08;1.58;;;;;;;;;;7384160;19;20014;-72
2021/12/07 04:45:05;;;;;;;2.20;1.35;;;;;;;;;;7383447;19;20030;-72
2021/12/07 04:47:45;;;;;;;1.73;1.05;;;;;;;;;;7384036;19;20031;-72
2021/12/07 04:50:37;;;;;;;1.77;1.17;;;;;;;;;;7383197;19;20345;-72
2021/12/07 04:58:31;;;;;;;1.75;1.30;;;;;;;;;;7380802;19;20075;-74
2021/12/07 05:00:57;;;;;;;2.28;1.20;;;;;;;;;;7381904;19;20006;-72
2021/12/07 05:03:24;;;;;;;1.60;1.20;;;;;;;;;;7381267;19;20507;-72
2021/12/07 05:05:52;;;;;;;1.88;1.50;;;;;;;;;;7378834;19;20011;-72
2021/12/07 05:08:33;;;;;;;2.13;1.30;;;;;;;;;;7379584;19;20106;-72
2021/12/07 05:11:48;;;;;;;1.27;1.10;;;;;;;;;;7384336;19;20469;-72
2021/12/07 05:16:50;;;;;;;1.92;1.15;;;;;;;;;;7387619;19;20019;-72
2021/12/07 05:26:07;;;;;;;1.52;1.10;;;;;;;;;;7379966;19;20047;-72
2021/12/07 05:38:35;;;;;;;1.27;1.02;;;;;;;;;;7377271;19;20018;-72
2021/12/07 05:41:00;;;;;;;1.25;1.10;;;;;;;;;;7378611;19;20559;-72
2021/12/07 05:43:26;;;;;;;0.98;0.95;;;;;;;;;;7382793;19;20003;-72
2021/12/07 05:45:52;;;;;;;1.67;1.35;;;;;;;;;;7382243;19;20002;-72
2021/12/07 05:48:17;;;;;;;1.58;1.10;;;;;;;;;;7381505;19;20056;-71
2021/12/07 05:50:43;;;;;;;1.23;0.90;;;;;;;;;;7384105;19;21296;-72
2021/12/07 05:53:11;;;;;;;1.42;1.08;;;;;;;;;;7392811;19;20035;-72
2021/12/07 05:55:38;;;;;;;2.28;0.93;;;;;;;;;;7391457;19;20019;-72
2021/12/07 05:58:08;;;;;;;1.00;0.90;;;;;;;;;;7390970;19;20100;-72
2021/12/07 06:00:34;;;;;;;1.33;1.02;;;;;;;;;;7390296;19;19998;-72
2021/12/07 06:03:03;;;;;;;1.27;1.08;;;;;;;;;;7389293;19;20011;-72
2021/12/07 06:05:30;;;;;;;1.77;1.25;;;;;;;;;;7388630;19;20523;-74
2021/12/07 06:07:55;;;;;;;1.25;1.10;;;;;;;;;;7387451;19;20588;-72
2021/12/07 06:10:21;;;;;;;1.67;1.50;;;;;;;;;;7385161;19;20031;-72
2021/12/07 06:12:46;;;;;;;2.42;1.83;;;;;;;;;;7386346;19;20018;-72
2021/12/07 06:15:15;;;;;;;1.98;1.50;;;;;;;;;;7385332;19;20006;-72
2021/12/07 06:17:40;;;;;;;1.50;1.15;;;;;;;;;;7390133;19;20006;-71
2021/12/07 06:20:06;;;;;;;1.25;1.10;;;;;;;;;;7385441;19;20037;-72
2021/12/07 06:22:32;;;;;;;1.75;1.38;;;;;;;;;;7390888;19;20023;-71
2021/12/07 06:24:57;;;;;;;1.83;1.52;;;;;;;;;;7388673;19;20374;-72
2021/12/07 06:27:23;;;;;;;1.10;1.00;;;;;;;;;;7380985;19;20013;-72
2021/12/07 06:29:48;;;;;;;1.85;1.20;;;;;;;;;;7387788;19;20096;-73
2021/12/07 06:32:14;;;;;;;1.38;1.10;;;;;;;;;;7386741;19;20010;-74
2021/12/07 06:34:39;;;;;;;1.45;1.20;;;;;;;;;;7387616;19;20114;-75
2021/12/07 06:37:05;;;;;;;1.55;1.33;;;;;;;;;;7383283;19;20035;-74
2021/12/07 06:39:31;;;;;;;1.20;1.10;;;;;;;;;;7385963;19;20028;-74
2021/12/07 06:41:56;;;;;;;3.05;1.60;;;;;;;;;;7383813;19;20420;-75
2021/12/07 06:44:21;;;;;;;2.15;1.30;;;;;;;;;;7383025;19;20023;-74
2021/12/07 06:46:50;;;;;;;2.10;1.85;;;;;;;;;;7388242;19;20001;-74
2021/12/07 06:49:16;;;;;;;2.17;1.40;;;;;;;;;;7382167;19;20014;-75
2021/12/07 06:51:42;;;;;;;6.57;2.58;;;;;;;;;;7388238;19;20051;-75
2021/12/07 06:54:07;;;;;;;3.38;2.40;;;;;;;;;;7377321;19;20694;-75
2021/12/07 06:56:33;;;;;;;3.25;1.40;;;;;;;;;;7385068;19;20040;-75
2021/12/07 06:58:58;;;;;;;1.70;1.50;;;;;;;;;;7383560;19;19995;-74
2021/12/07 07:01:23;;;;;;;1.73;1.27;;;;;;;;;;7384548;19;20010;-76
2021/12/07 07:03:49;;;;;;;1.80;1.40;;;;;;;;;;7384682;19;19999;-76
2021/12/07 07:06:14;;;;;;;1.85;1.08;;;;;;;;;;7387360;19;20329;-75
2021/12/07 07:08:40;;;;;;;1.50;1.10;;;;;;;;;;7388290;19;20007;-75
2021/12/07 07:11:05;;;;;;;3.28;2.47;;;;;;;;;;7388099;19;20010;-75
2021/12/07 07:13:31;;;;;;;2.15;1.65;;;;;;;;;;7391072;19;20007;-75
2021/12/07 07:15:57;;;;;;;1.55;1.38;;;;;;;;;;7390812;19;20005;-76
2021/12/07 07:18:22;;;;;;;1.00;1.00;;;;;;;;;;7387862;19;20043;-75
2021/12/07 07:20:48;;;;;;;2.00;1.30;;;;;;;;;;7389688;19;20005;-76
2021/12/07 07:23:13;;;;;;;1.90;1.02;;;;;;;;;;7389625;19;20380;-76
2021/12/07 07:25:38;;;;;;;1.60;1.13;;;;;;;;;;7389268;19;20078;-75
2021/12/07 07:28:04;;;;;;;2.65;1.38;;;;;;;;;;7390554;19;19999;-76
2021/12/07 07:30:30;;;;;;;1.40;1.05;;;;;;;;;;7390180;19;20014;-75
2021/12/07 07:32:55;;;;;;;1.77;1.38;;;;;;;;;;7389657;19;20009;-76
2021/12/07 07:35:21;;;;;;;3.67;1.50;;;;;;;;;;7390083;19;20006;-76
2021/12/07 07:37:47;;;;;;;1.38;1.00;;;;;;;;;;7389326;19;21062;-76
2021/12/07 07:40:18;;;;;;;2.22;1.33;;;;;;;;;;7388589;19;20018;-76
2021/12/07 07:42:44;;;;;;;3.65;2.25;;;;;;;;;;7388312;19;20368;-75
2021/12/07 07:45:11;;;;;;;4.30;1.83;;;;;;;;;;7388477;19;19999;-76
2021/12/07 07:47:36;;;;;;;1.35;1.20;;;;;;;;;;7388785;19;20019;-75
2021/12/07 07:50:03;;;;;;;1.65;1.30;;;;;;;;;;7387732;19;19998;-77
2021/12/07 07:52:29;;;;;;;1.63;1.20;;;;;;;;;;7387452;19;20010;-75
2021/12/07 07:54:54;;;;;;;1.60;1.10;;;;;;;;;;7389030;19;19996;-76
2021/12/07 07:57:19;;;;;;;3.78;1.15;;;;;;;;;;7386324;19;20062;-78
2021/12/07 07:59:45;;;;;;;1.55;1.00;;;;;;;;;;7385221;19;20009;-76
2021/12/07 08:02:10;;;;;;;2.75;1.15;;;;;;;;;;7388358;19;20329;-76
2021/12/07 08:04:36;;;;;;;2.92;1.02;;;;;;;;;;7384441;19;19994;-75
2021/12/07 08:07:01;;;;;;;1.10;1.00;;;;;;;;;;7387925;19;19991;-73
2021/12/07 08:09:26;;;;;;;2.00;1.35;;;;;;;;;;7382203;19;20014;-73
2021/12/07 08:11:52;;;;;;;4.45;1.40;;;;;;;;;;7384978;19;20050;-74
2021/12/07 08:14:18;;;;;;;2.30;1.40;;;;;;;;;;7386007;19;20006;-75
2021/12/07 08:16:44;;;;;;;2.10;1.20;;;;;;;;;;7384662;19;20018;-76
2021/12/07 08:19:09;;;;;;;2.80;1.10;;;;;;;;;;7379182;19;20010;-78
2021/12/07 08:21:34;;;;;;;1.67;1.40;;;;;;;;;;7386388;19;20022;-78
2021/12/07 08:24:00;;;;;;;1.77;1.15;;;;;;;;;;7384824;19;20020;-77
2021/12/07 08:26:25;;;;;;;2.25;1.13;;;;;;;;;;7383342;19;20010;-77
2021/12/07 08:28:53;;;;;;;0.98;0.88;;;;;;;;;;7382342;19;20063;-77
2021/12/07 08:31:19;;;;;;;1.45;0.90;;;;;;;;;;7383858;19;20366;-73
2021/12/07 08:33:44;;;;;;;1.30;1.00;;;;;;;;;;7382141;19;20021;-74
2021/12/07 08:36:10;;;;;;;2.97;1.23;;;;;;;;;;7386825;19;20006;-77
2021/12/07 08:38:35;;;;;;;2.05;1.20;;;;;;;;;;7381660;19;20477;-78
2021/12/07 08:41:01;;;;;;;2.50;1.30;;;;;;;;;;7380776;19;20042;-76
2021/12/07 08:43:29;;;;;;;2.65;1.17;;;;;;;;;;7381799;19;20476;-76
2021/12/07 08:45:56;;;;;;;1.73;1.27;;;;;;;;;;7384788;19;20009;-77
2021/12/07 08:48:22;;;;;;;1.48;1.38;;;;;;;;;;7382116;19;20050;-78
2021/12/07 08:50:48;;;;;;;1.23;1.13;;;;;;;;;;7382117;19;20615;-77
2021/12/07 08:53:17;;;;;;;3.28;1.42;;;;;;;;;;7382932;19;20031;-77
2021/12/07 09:01:17;;;;;;;1.17;0.85;;;;;;;;;;7382963;19;20054;-76
2021/12/07 09:03:43;;;;;;;3.15;1.35;;;;;;;;;;7385402;19;20019;-75
2021/12/07 09:06:10;;;;;;;4.35;1.73;;;;;;;;;;7384444;19;20122;-77
2021/12/07 09:08:35;;;;;;;2.45;1.20;;;;;;;;;;7382272;19;20038;-77
2021/12/07 09:11:02;;;;;;;1.25;1.00;;;;;;;;;;7382674;19;20010;-78
2021/12/07 09:13:28;;;;;;;1.98;1.20;;;;;;;;;;7380946;19;20509;-77
2021/12/07 09:15:55;;;;;;;2.78;1.58;;;;;;;;;;7385899;19;20010;-77
2021/12/07 09:18:20;;;;;;;2.65;0.98;;;;;;;;;;7383978;19;20002;-76
2021/12/07 09:20:46;;;;;;;2.03;1.20;;;;;;;;;;7383743;19;20018;-78
2021/12/07 09:23:11;;;;;;;1.27;1.10;;;;;;;;;;7386234;19;20081;-75
2021/12/07 09:25:37;;;;;;;3.30;1.20;;;;;;;;;;7383447;19;20022;-74
2021/12/07 09:28:03;;;;;;;3.78;1.05;;;;;;;;;;7381343;19;20002;-76
2021/12/07 09:30:28;;;;;;;2.08;1.08;;;;;;;;;;7379956;19;20055;-77
2021/12/07 09:32:54;;;;;;;2.42;1.10;;;;;;;;;;7379994;19;20320;-78
2021/12/07 09:35:21;;;;;;;1.00;1.00;;;;;;;;;;7383437;19;20481;-78
2021/12/07 09:37:48;;;;;;;1.92;1.15;;;;;;;;;;7386069;19;20840;-77
2021/12/07 09:40:15;;;;;;;1.17;1.08;;;;;;;;;;7384720;19;20006;-75
2021/12/07 09:42:41;;;;;;;1.75;1.20;;;;;;;;;;7385565;19;20125;-73
2021/12/07 09:45:10;;;;;;;1.63;0.98;;;;;;;;;;7381620;19;20524;-76
2021/12/07 09:47:35;;;;;;;2.03;0.90;;;;;;;;;;7379507;19;20447;-79
2021/12/07 09:50:03;;;;;;;6.72;1.23;;;;;;;;;;7386537;19;20014;-79
2021/12/07 09:52:28;;;;;;;2.15;1.08;;;;;;;;;;7385581;19;20070;-80
2021/12/07 09:54:53;;;;;;;1.30;1.00;;;;;;;;;;7384059;19;20015;-77
2021/12/07 09:57:20;;;;;;;3.00;1.10;;;;;;;;;;7384896;19;20034;-74
2021/12/07 09:59:46;;;;;;;1.60;1.08;;;;;;;;;;7379160;19;20011;-78
2021/12/07 10:02:11;;;;;;;1.90;1.10;;;;;;;;;;7383719;19;20117;-78
2021/12/07 10:04:37;;;;;;;4.43;1.00;;;;;;;;;;7383735;19;19999;-78
2021/12/07 10:07:03;;;;;;;3.38;0.88;;;;;;;;;;7382019;19;20003;-76
2021/12/07 10:09:29;;;;;;;2.13;0.98;;;;;;;;;;7385709;19;20313;-70
2021/12/07 10:11:55;;;;;;;1.77;0.98;;;;;;;;;;7375286;19;20458;-74
2021/12/07 10:14:22;;;;;;;1.70;0.95;;;;;;;;;;7387997;19;20010;-74
2021/12/07 10:16:49;;;;;;;1.17;0.80;;;;;;;;;;7381730;19;20014;-75
2021/12/07 10:19:28;;;;;;;1.35;0.80;;;;;;;;;;7379479;19;20011;-72
2021/12/07 10:22:21;;;;;;;1.17;1.00;;;;;;;;;;7376216;19;20465;-76
2021/12/07 10:24:50;;;;;;;1.33;0.70;;;;;;;;;;7384251;19;20483;-74
2021/12/07 10:27:31;;;;;;;0.93;0.82;;;;;;;;;;7382439;19;20003;-74
2021/12/07 10:29:56;;;;;;;1.10;1.00;;;;;;;;;;7379191;19;20037;-71
2021/12/07 10:32:22;;;;;;;1.38;0.80;;;;;;;;;;7380978;19;20015;-75
2021/12/07 10:34:47;;;;;;;4.63;1.15;;;;;;;;;;7377482;19;20010;-74
2021/12/07 10:37:15;;;;;;;3.00;1.30;;;;;;;;;;7377149;19;20082;-74
2021/12/07 10:39:46;;;;;;;3.80;1.40;;;;;;;;;;7382422;19;20020;-73
2021/12/07 10:42:19;;;;;;;1.73;1.00;;;;;;;;;;7387373;19;20113;-76
2021/12/07 10:44:44;;;;;;;0.98;0.77;;;;;;;;;;7389033;19;20012;-71
2021/12/07 10:47:12;;;;;;;2.75;1.20;;;;;;;;;;7386387;19;20461;-71
2021/12/07 10:49:56;;;;;;;5.28;1.13;;;;;;;;;;7387671;19;20904;-74
2021/12/07 10:52:33;;;;;;;4.78;0.80;;;;;;;;;;7390163;19;20010;-74
2021/12/07 10:55:08;;;;;;;2.83;1.30;;;;;;;;;;7386606;19;20010;-74
2021/12/07 10:57:38;;;;;;;1.27;0.82;;;;;;;;;;7391433;19;20006;-75
2021/12/07 11:00:20;;;;;;;0.90;0.80;;;;;;;;;;7384367;19;20459;-75
2021/12/07 11:03:01;;;;;;;2.65;1.00;;;;;;;;;;7391138;19;20273;-72
2021/12/07 11:05:31;;;;;;;3.78;1.52;;;;;;;;;;7388466;19;20030;-73
2021/12/07 11:07:58;;;;;;;1.25;0.82;;;;;;;;;;7386532;19;19998;-72
2021/12/07 11:10:30;;;;;;;2.08;1.00;;;;;;;;;;7384931;19;20802;-72
2021/12/07 11:13:18;;;;;;;1.70;1.05;;;;;;;;;;7380886;19;20078;-73
2021/12/07 11:15:59;;;;;;;1.35;0.90;;;;;;;;;;7390622;19;20090;-73
2021/12/07 11:18:45;;;;;;;2.15;0.93;;;;;;;;;;7386755;19;19999;-72
2021/12/07 11:21:17;;;;;;;4.82;1.27;;;;;;;;;;7386465;19;20375;-72
2021/12/07 11:24:02;;;;;;;3.60;1.20;;;;;;;;;;7387776;19;20003;-73
2021/12/07 11:31:49;;;;;;;3.70;0.95;;;;;;;;;;7387510;19;20343;-74
2021/12/07 11:34:17;;;;;;;1.50;0.93;;;;;;;;;;7387442;19;20062;-74
2021/12/07 11:36:44;;;;;;;2.40;1.00;;;;;;;;;;7390025;19;20011;-74
2021/12/07 11:39:26;;;;;;;1.58;0.85;;;;;;;;;;7384486;19;20017;-72
2021/12/07 11:42:04;;;;;;;3.13;1.30;;;;;;;;;;7384856;19;20496;-73
2021/12/07 11:44:32;;;;;;;2.15;1.00;;;;;;;;;;7388818;19;20006;-75
2021/12/07 11:46:59;;;;;;;3.35;1.02;;;;;;;;;;7387325;19;20017;-72
2021/12/07 11:49:29;;;;;;;1.23;0.90;;;;;;;;;;7385052;19;20010;-75
2021/12/07 11:51:57;;;;;;;3.55;1.20;;;;;;;;;;7377020;19;20007;-74
2021/12/07 11:54:26;;;;;;;5.10;1.45;;;;;;;;;;7384819;19;20041;-75
2021/12/07 11:56:52;;;;;;;1.98;1.17;;;;;;;;;;7382299;19;20015;-77
2021/12/07 11:59:17;;;;;;;4.60;1.30;;;;;;;;;;7380532;19;20457;-75
2021/12/07 12:01:46;;;;;;;5.38;1.30;;;;;;;;;;7382641;19;20006;-74
2021/12/07 12:04:12;;;;;;;1.60;1.00;;;;;;;;;;7375526;19;20174;-75
2021/12/07 12:06:38;;;;;;;2.88;1.10;;;;;;;;;;7382852;19;20031;-75
2021/12/07 12:09:04;;;;;;;1.23;1.00;;;;;;;;;;7383703;19;20367;-75
2021/12/07 12:12:09;;;;;;;1.42;1.00;;;;;;;;;;7381094;19;20500;-75
2021/12/07 12:14:49;;;;;;;2.42;0.95;;;;;;;;;;7383808;19;20010;-74
2021/12/07 12:17:38;;;;;;;2.47;0.93;;;;;;;;;;7379360;19;20066;-73
2021/12/07 12:20:26;;;;;;;4.93;1.50;;;;;;;;;;7381467;19;20341;-74
2021/12/07 12:23:02;;;;;;;3.95;1.20;;;;;;;;;;7383336;19;20003;-75
2021/12/07 12:25:28;;;;;;;3.08;1.50;;;;;;;;;;7384781;19;20103;-75
2021/12/07 12:27:56;;;;;;;1.95;1.00;;;;;;;;;;7383743;19;20010;-75
2021/12/07 12:30:37;;;;;;;3.10;1.00;;;;;;;;;;7381200;19;20034;-74
2021/12/07 12:33:12;;;;;;;3.13;1.35;;;;;;;;;;7383025;19;20341;-74
2021/12/07 12:35:42;;;;;;;2.75;1.15;;;;;;;;;;7379044;19;20011;-75
2021/12/07 12:38:19;;;;;;;2.63;1.13;;;;;;;;;;7382749;19;20022;-75
2021/12/07 12:40:54;;;;;;;2.67;1.02;;;;;;;;;;7384689;19;20006;-76
2021/12/07 12:43:51;;;;;;;1.70;0.98;;;;;;;;;;7384002;19;20002;-75
2021/12/07 12:46:20;;;;;;;3.38;1.35;;;;;;;;;;7385414;19;20022;-76
2021/12/07 12:48:49;;;;;;;4.78;1.60;;;;;;;;;;7383302;19;20041;-74
2021/12/07 12:51:15;;;;;;;3.38;1.33;;;;;;;;;;7382419;19;20360;-75
2021/12/07 12:53:43;;;;;;;4.72;1.30;;;;;;;;;;7385344;19;20504;-75
2021/12/07 12:56:11;;;;;;;2.45;1.10;;;;;;;;;;7382456;19;20761;-76
2021/12/07 12:58:42;;;;;;;3.90;1.55;;;;;;;;;;7384029;19;20006;-74
2021/12/07 13:01:13;;;;;;;2.47;0.98;;;;;;;;;;7379139;19;20178;-77
2021/12/07 13:03:57;;;;;;;4.20;1.20;;;;;;;;;;7379454;19;20022;-75
2021/12/07 13:06:32;;;;;;;2.30;0.90;;;;;;;;;;7385602;19;20031;-75
2021/12/07 13:08:59;;;;;;;3.28;1.00;;;;;;;;;;7380738;19;20010;-75
2021/12/07 13:11:35;;;;;;;2.42;1.08;;;;;;;;;;7378951;19;20657;-74
2021/12/07 13:14:03;;;;;;;2.85;0.80;;;;;;;;;;7382080;19;20373;-74
2021/12/07 13:16:28;;;;;;;4.20;1.67;;;;;;;;;;7381477;19;20014;-77
2021/12/07 13:19:03;;;;;;;5.45;1.40;;;;;;;;;;7379555;19;20010;-75
2021/12/07 13:21:31;;;;;;;2.03;1.00;;;;;;;;;;7376544;19;20018;-75
2021/12/07 13:24:02;;;;;;;3.58;1.10;;;;;;;;;;7378276;19;20106;-75
2021/12/07 13:26:33;;;;;;;5.70;1.10;;;;;;;;;;7381489;19;20010;-75
2021/12/07 13:29:14;;;;;;;3.53;1.10;;;;;;;;;;7380872;19;20011;-76
2021/12/07 13:31:42;;;;;;;1.92;1.25;;;;;;;;;;7380230;19;20006;-75
2021/12/07 13:34:10;;;;;;;4.97;1.00;;;;;;;;;;7382399;19;20003;-76
2021/12/07 13:36:47;;;;;;;6.30;1.30;;;;;;;;;;7379081;19;20432;-75
2021/12/07 13:39:13;;;;;;;1.45;0.73;;;;;;;;;;7381220;19;20791;-76
2021/12/07 13:42:02;;;;;;;2.75;0.70;;;;;;;;;;7376481;19;20605;-75
2021/12/07 13:44:31;;;;;;;2.88;0.90;;;;;;;;;;7378584;19;20118;-76
2021/12/07 13:47:00;;;;;;;3.20;0.95;;;;;;;;;;7382284;19;20014;-76
2021/12/07 13:49:26;;;;;;;2.53;1.10;;;;;;;;;;7382122;19;20002;-75
2021/12/07 13:51:52;;;;;;;3.08;1.13;;;;;;;;;;7383263;19;20009;-76
2021/12/07 13:54:21;;;;;;;2.40;1.10;;;;;;;;;;7384734;19;20806;-77
2021/12/07 13:56:48;;;;;;;3.97;1.08;;;;;;;;;;7384938;19;20457;-76
2021/12/07 13:59:17;;;;;;;5.05;2.38;;;;;;;;;;7381294;19;20523;-76
2021/12/07 14:01:50;;;;;;;7.07;2.20;;;;;;;;;;7381357;19;20013;-76
2021/12/07 14:04:15;;;;;;;3.55;1.90;;;;;;;;;;7384505;19;20010;-77
2021/12/07 14:06:49;;;;;;;4.38;1.33;;;;;;;;;;7381933;19;20119;-77
2021/12/07 14:09:15;;;;;;;1.88;1.13;;;;;;;;;;7382899;19;20010;-76
2021/12/07 14:11:41;;;;;;;3.53;1.27;;;;;;;;;;7384585;19;20022;-75
2021/12/07 14:14:12;;;;;;;2.65;0.88;;;;;;;;;;7390070;19;20006;-76
2021/12/07 14:16:38;;;;;;;3.65;1.20;;;;;;;;;;7391982;19;20006;-79
2021/12/07 14:19:04;;;;;;;1.13;0.98;;;;;;;;;;7386692;19;20485;-77
2021/12/07 14:21:30;;;;;;;1.95;1.00;;;;;;;;;;7384612;19;20115;-74
2021/12/07 14:24:04;;;;;;;1.95;0.90;;;;;;;;;;7390453;19;20456;-76
2021/12/07 14:26:34;;;;;;;2.72;1.00;;;;;;;;;;7387938;19;20039;-74
2021/12/07 14:29:03;;;;;;;2.47;1.10;;;;;;;;;;7387841;19;20024;-74
2021/12/07 14:31:38;;;;;;;4.28;1.52;;;;;;;;;;7385967;19;20015;-74
2021/12/07 14:34:10;;;;;;;5.10;0.90;;;;;;;;;;7385034;19;20011;-77
2021/12/07 14:36:39;;;;;;;2.30;0.85;;;;;;;;;;7384677;19;20020;-76
2021/12/07 14:39:16;;;;;;;3.22;1.20;;;;;;;;;;7386009;19;20345;-77
2021/12/07 14:41:51;;;;;;;2.42;0.90;;;;;;;;;;7384670;19;20325;-75
2021/12/07 14:44:19;;;;;;;5.45;1.42;;;;;;;;;;7386545;19;20035;-78
2021/12/07 14:46:45;;;;;;;1.27;0.90;;;;;;;;;;7388857;19;20007;-75
2021/12/07 14:49:11;;;;;;;1.70;1.30;;;;;;;;;;7386585;19;20058;-76
2021/12/07 14:51:37;;;;;;;7.55;1.17;;;;;;;;;;7386059;19;20011;-77
2021/12/07 14:54:04;;;;;;;2.78;1.20;;;;;;;;;;7389722;19;20010;-76
2021/12/07 14:56:32;;;;;;;3.30;1.30;;;;;;;;;;7390304;19;20007;-76
2021/12/07 14:59:00;;;;;;;5.82;2.35;;;;;;;;;;7384922;19;20733;-75
2021/12/07 15:01:31;;;;;;;8.40;3.58;;;;;;;;;;7383494;19;20041;-76
2021/12/07 15:04:00;;;;;;;13.98;5.15;;;;;;;;;;7387241;19;20051;-75
2021/12/07 15:06:30;;;;;;;13.10;4.97;;;;;;;;;;7389321;19;20065;-75
2021/12/07 15:08:58;;;;;;;13.45;5.60;;;;;;;;;;7387565;19;20011;-75
2021/12/07 15:11:24;;;;;;;9.77;4.22;;;;;;;;;;7387786;19;20003;-75
2021/12/07 15:13:50;;;;;;;12.27;4.30;;;;;;;;;;7390294;19;19998;-75
2021/12/07 15:16:16;;;;;;;4.32;2.63;;;;;;;;;;7390588;19;20011;-75
2021/12/07 15:18:44;;;;;;;4.07;1.92;;;;;;;;;;7389212;19;20518;-76
2021/12/07 15:21:15;;;;;;;4.80;1.90;;;;;;;;;;7383370;19;20002;-74
2021/12/07 15:23:55;;;;;;;4.95;1.73;;;;;;;;;;7385363;19;20022;-75
2021/12/07 15:26:26;;;;;;;4.47;2.17;;;;;;;;;;7382040;19;20010;-75
2021/12/07 15:29:07;;;;;;;4.70;2.30;;;;;;;;;;7384873;19;20014;-75
2021/12/07 15:31:36;;;;;;;10.73;2.63;;;;;;;;;;7387748;19;20090;-75
2021/12/07 15:34:03;;;;;;;7.93;3.22;;;;;;;;;;7385036;19;20007;-75
2021/12/07 15:36:31;;;;;;;7.78;2.83;;;;;;;;;;7387188;19;19998;-74
2021/12/07 15:39:09;;;;;;;5.05;2.70;;;;;;;;;;7385149;19;20010;-75
2021/12/07 15:41:35;;;;;;;8.68;3.38;;;;;;;;;;7386826;19;20011;-78
2021/12/07 15:44:01;;;;;;;8.68;3.97;;;;;;;;;;7388235;19;20002;-77
2021/12/07 15:46:26;;;;;;;11.90;5.38;;;;;;;;;;7385639;19;20014;-78
2021/12/07 15:48:55;;;;;;;8.82;4.22;;;;;;;;;;7387172;19;20408;-77
2021/12/07 15:51:20;;;;;;;7.28;4.40;;;;;;;;;;7386055;19;20010;-77
2021/12/07 15:53:45;;;;;;;11.55;4.93;;;;;;;;;;7386412;19;20009;-73
2021/12/07 15:56:19;;;;;;;6.90;4.35;;;;;;;;;;7388248;19;20006;-76
2021/12/07 15:58:45;;;;;;;9.15;4.32;;;;;;;;;;7381838;19;20524;-76
2021/12/07 16:01:12;;;;;;;4.68;2.67;;;;;;;;;;7385709;19;20412;-75
2021/12/07 16:03:43;;;;;;;5.57;2.90;;;;;;;;;;7386383;19;20018;-74
2021/12/07 16:06:19;;;;;;;3.15;1.95;;;;;;;;;;7383910;19;20014;-75
2021/12/07 16:08:44;;;;;;;4.07;2.10;;;;;;;;;;7386123;19;20009;-75
2021/12/07 16:11:16;;;;;;;5.90;3.20;;;;;;;;;;7385904;19;20020;-75
2021/12/07 16:13:45;;;;;;;3.67;2.55;;;;;;;;;;7384340;19;20670;-75
2021/12/07 16:16:24;;;;;;;4.55;2.28;;;;;;;;;;7388632;19;20077;-75
2021/12/07 16:18:49;;;;;;;4.45;2.47;;;;;;;;;;7374932;19;19998;-73
2021/12/07 16:21:17;;;;;;;4.05;2.08;;;;;;;;;;7361158;19;20188;-75